sensor_id;sensor_type;location;lat;lon;timestamp;temperature;humidity
68439;SHT31;55421;51.600;5.718;2023-03-30T00:01:21;13.19;74.42
68439;SHT31;55421;51.600;5.718;2023-03-30T00:03:48;13.23;74.34
68439;SHT31;55421;51.600;5.718;2023-03-30T00:06:15;13.25;74.21
68439;SHT31;55421;51.600;5.718;2023-03-30T00:08:48;13.28;74.12
68439;SHT31;55421;51.600;5.718;2023-03-30T00:11:24;13.31;73.99
68439;SHT31;55421;51.600;5.718;2023-03-30T00:13:52;13.34;73.80
68439;SHT31;55421;51.600;5.718;2023-03-30T00:16:19;13.36;73.58
68439;SHT31;55421;51.600;5.718;2023-03-30T00:18:46;13.38;73.47
68439;SHT31;55421;51.600;5.718;2023-03-30T00:21:13;13.38;73.40
68439;SHT31;55421;51.600;5.718;2023-03-30T00:23:44;13.38;73.34
68439;SHT31;55421;51.600;5.718;2023-03-30T00:26:14;13.38;73.22
68439;SHT31;55421;51.600;5.718;2023-03-30T00:28:41;13.38;73.18
68439;SHT31;55421;51.600;5.718;2023-03-30T00:31:08;13.36;73.10
68439;SHT31;55421;51.600;5.718;2023-03-30T00:33:36;13.34;73.15
68439;SHT31;55421;51.600;5.718;2023-03-30T00:36:03;13.30;73.18
68439;SHT31;55421;51.600;5.718;2023-03-30T00:38:30;13.28;73.20
68439;SHT31;55421;51.600;5.718;2023-03-30T00:41:00;13.25;73.19
68439;SHT31;55421;51.600;5.718;2023-03-30T00:43:27;13.25;73.17
68439;SHT31;55421;51.600;5.718;2023-03-30T00:45:55;13.25;73.08
68439;SHT31;55421;51.600;5.718;2023-03-30T00:48:32;13.25;73.01
68439;SHT31;55421;51.600;5.718;2023-03-30T00:51:04;13.26;72.96
68439;SHT31;55421;51.600;5.718;2023-03-30T00:53:45;13.27;72.90
68439;SHT31;55421;51.600;5.718;2023-03-30T00:56:16;13.28;72.82
68439;SHT31;55421;51.600;5.718;2023-03-30T00:58:54;13.29;72.80
68439;SHT31;55421;51.600;5.718;2023-03-30T01:01:20;13.30;72.80
68439;SHT31;55421;51.600;5.718;2023-03-30T01:03:56;13.28;72.80
68439;SHT31;55421;51.600;5.718;2023-03-30T01:06:30;13.26;72.88
68439;SHT31;55421;51.600;5.718;2023-03-30T01:08:59;13.22;72.82
68439;SHT31;55421;51.600;5.718;2023-03-30T01:11:26;13.19;72.87
68439;SHT31;55421;51.600;5.718;2023-03-30T01:13:57;13.16;72.95
68439;SHT31;55421;51.600;5.718;2023-03-30T01:31:28;13.05;73.20
68439;SHT31;55421;51.600;5.718;2023-03-30T01:40:15;13.02;73.21
68439;SHT31;55421;51.600;5.718;2023-03-30T01:42:57;13.00;73.20
68439;SHT31;55421;51.600;5.718;2023-03-30T01:45:45;12.99;73.24
68439;SHT31;55421;51.600;5.718;2023-03-30T01:48:26;12.98;73.23
68439;SHT31;55421;51.600;5.718;2023-03-30T01:51:11;12.97;73.27
68439;SHT31;55421;51.600;5.718;2023-03-30T01:56:26;13.00;73.24
68439;SHT31;55421;51.600;5.718;2023-03-30T01:59:02;13.04;73.14
68439;SHT31;55421;51.600;5.718;2023-03-30T02:01:37;13.08;73.02
68439;SHT31;55421;51.600;5.718;2023-03-30T02:04:08;13.12;72.96
68439;SHT31;55421;51.600;5.718;2023-03-30T02:06:38;13.15;72.86
68439;SHT31;55421;51.600;5.718;2023-03-30T02:09:14;13.18;72.75
68439;SHT31;55421;51.600;5.718;2023-03-30T02:11:46;13.23;72.67
68439;SHT31;55421;51.600;5.718;2023-03-30T02:14:19;13.26;72.58
68439;SHT31;55421;51.600;5.718;2023-03-30T02:16:53;13.28;72.50
68439;SHT31;55421;51.600;5.718;2023-03-30T02:19:28;13.29;72.44
68439;SHT31;55421;51.600;5.718;2023-03-30T02:21:55;13.30;72.40
68439;SHT31;55421;51.600;5.718;2023-03-30T02:24:23;13.29;72.40
68439;SHT31;55421;51.600;5.718;2023-03-30T02:26:54;13.30;72.46
68439;SHT31;55421;51.600;5.718;2023-03-30T02:29:21;13.31;72.49
68439;SHT31;55421;51.600;5.718;2023-03-30T02:31:48;13.32;72.46
68439;SHT31;55421;51.600;5.718;2023-03-30T02:34:35;13.35;72.40
68439;SHT31;55421;51.600;5.718;2023-03-30T02:37:41;13.36;72.35
68439;SHT31;55421;51.600;5.718;2023-03-30T02:43:54;13.29;72.40
68439;SHT31;55421;51.600;5.718;2023-03-30T02:53:06;13.17;72.57
68439;SHT31;55421;51.600;5.718;2023-03-30T02:55:32;13.14;72.69
68439;SHT31;55421;51.600;5.718;2023-03-30T02:58:33;13.12;72.70
68439;SHT31;55421;51.600;5.718;2023-03-30T03:01:18;13.11;72.80
68439;SHT31;55421;51.600;5.718;2023-03-30T03:04:05;13.10;72.82
68439;SHT31;55421;51.600;5.718;2023-03-30T03:06:35;13.10;72.80
68439;SHT31;55421;51.600;5.718;2023-03-30T03:09:04;13.12;72.81
68439;SHT31;55421;51.600;5.718;2023-03-30T03:11:31;13.13;72.83
68439;SHT31;55421;51.600;5.718;2023-03-30T03:13:57;13.15;72.80
68439;SHT31;55421;51.600;5.718;2023-03-30T03:16:24;13.16;72.82
68439;SHT31;55421;51.600;5.718;2023-03-30T03:18:51;13.20;72.81
68439;SHT31;55421;51.600;5.718;2023-03-30T03:21:18;13.21;72.80
68439;SHT31;55421;51.600;5.718;2023-03-30T03:23:45;13.24;72.76
68439;SHT31;55421;51.600;5.718;2023-03-30T03:26:13;13.27;72.70
68439;SHT31;55421;51.600;5.718;2023-03-30T03:28:39;13.30;72.64
68439;SHT31;55421;51.600;5.718;2023-03-30T03:31:06;13.35;72.60
68439;SHT31;55421;51.600;5.718;2023-03-30T03:33:32;13.38;72.52
68439;SHT31;55421;51.600;5.718;2023-03-30T03:35:59;13.43;72.50
68439;SHT31;55421;51.600;5.718;2023-03-30T03:38:26;13.45;72.44
68439;SHT31;55421;51.600;5.718;2023-03-30T03:40:55;13.48;72.40
68439;SHT31;55421;51.600;5.718;2023-03-30T03:43:24;13.50;72.39
68439;SHT31;55421;51.600;5.718;2023-03-30T03:45:51;13.50;72.38
68439;SHT31;55421;51.600;5.718;2023-03-30T03:48:18;13.49;72.40
68439;SHT31;55421;51.600;5.718;2023-03-30T03:50:51;13.47;72.40
68439;SHT31;55421;51.600;5.718;2023-03-30T03:53:21;13.45;72.49
68439;SHT31;55421;51.600;5.718;2023-03-30T03:55:50;13.44;72.50
68439;SHT31;55421;51.600;5.718;2023-03-30T03:58:17;13.42;72.49
68439;SHT31;55421;51.600;5.718;2023-03-30T04:00:44;13.41;72.44
68439;SHT31;55421;51.600;5.718;2023-03-30T04:03:10;13.40;72.41
68439;SHT31;55421;51.600;5.718;2023-03-30T04:05:39;13.39;72.36
68439;SHT31;55421;51.600;5.718;2023-03-30T04:08:07;13.39;72.26
68439;SHT31;55421;51.600;5.718;2023-03-30T04:10:36;13.40;72.12
68439;SHT31;55421;51.600;5.718;2023-03-30T04:13:06;13.41;71.97
68439;SHT31;55421;51.600;5.718;2023-03-30T04:15:33;13.42;71.77
68439;SHT31;55421;51.600;5.718;2023-03-30T04:18:00;13.42;71.64
68439;SHT31;55421;51.600;5.718;2023-03-30T04:20:27;13.43;71.42
68439;SHT31;55421;51.600;5.718;2023-03-30T04:22:54;13.44;71.21
68439;SHT31;55421;51.600;5.718;2023-03-30T04:25:22;13.47;71.21
68439;SHT31;55421;51.600;5.718;2023-03-30T04:27:51;13.48;71.30
68439;SHT31;55421;51.600;5.718;2023-03-30T04:30:18;13.48;71.13
68439;SHT31;55421;51.600;5.718;2023-03-30T04:32:47;13.50;71.03
68439;SHT31;55421;51.600;5.718;2023-03-30T04:35:28;13.52;71.01
68439;SHT31;55421;51.600;5.718;2023-03-30T04:37:56;13.52;71.06
68439;SHT31;55421;51.600;5.718;2023-03-30T04:40:23;13.50;71.00
68439;SHT31;55421;51.600;5.718;2023-03-30T04:42:50;13.49;71.01
68439;SHT31;55421;51.600;5.718;2023-03-30T04:45:16;13.47;70.94
68439;SHT31;55421;51.600;5.718;2023-03-30T04:47:43;13.47;70.97
68439;SHT31;55421;51.600;5.718;2023-03-30T04:50:11;13.47;71.06
68439;SHT31;55421;51.600;5.718;2023-03-30T04:52:39;13.46;71.02
68439;SHT31;55421;51.600;5.718;2023-03-30T04:55:06;13.46;71.05
68439;SHT31;55421;51.600;5.718;2023-03-30T04:57:34;13.45;71.10
68439;SHT31;55421;51.600;5.718;2023-03-30T05:00:01;13.45;71.10
68439;SHT31;55421;51.600;5.718;2023-03-30T05:02:32;13.43;71.10
68439;SHT31;55421;51.600;5.718;2023-03-30T05:04:59;13.41;71.18
68439;SHT31;55421;51.600;5.718;2023-03-30T05:07:26;13.37;71.21
68439;SHT31;55421;51.600;5.718;2023-03-30T05:09:52;13.36;71.29
68439;SHT31;55421;51.600;5.718;2023-03-30T05:12:19;13.34;71.38
68439;SHT31;55421;51.600;5.718;2023-03-30T05:14:46;13.32;71.50
68439;SHT31;55421;51.600;5.718;2023-03-30T05:17:13;13.31;71.59
68439;SHT31;55421;51.600;5.718;2023-03-30T05:19:39;13.30;71.60
68439;SHT31;55421;51.600;5.718;2023-03-30T05:22:06;13.28;71.68
68439;SHT31;55421;51.600;5.718;2023-03-30T05:24:32;13.29;71.77
68439;SHT31;55421;51.600;5.718;2023-03-30T05:26:59;13.27;71.98
68439;SHT31;55421;51.600;5.718;2023-03-30T05:29:27;13.26;72.40
68439;SHT31;55421;51.600;5.718;2023-03-30T05:31:54;13.21;73.19
68439;SHT31;55421;51.600;5.718;2023-03-30T05:34:20;13.14;74.47
68439;SHT31;55421;51.600;5.718;2023-03-30T05:36:47;13.04;75.51
68439;SHT31;55421;51.600;5.718;2023-03-30T05:39:13;12.96;76.17
68439;SHT31;55421;51.600;5.718;2023-03-30T05:41:40;12.88;76.78
68439;SHT31;55421;51.600;5.718;2023-03-30T05:44:06;12.81;77.53
68439;SHT31;55421;51.600;5.718;2023-03-30T05:46:33;12.74;78.34
68439;SHT31;55421;51.600;5.718;2023-03-30T05:48:59;12.67;78.59
68439;SHT31;55421;51.600;5.718;2023-03-30T05:51:26;12.63;79.07
68439;SHT31;55421;51.600;5.718;2023-03-30T05:53:53;12.58;79.49
68439;SHT31;55421;51.600;5.718;2023-03-30T05:56:21;12.55;79.85
68439;SHT31;55421;51.600;5.718;2023-03-30T05:58:48;12.53;80.04
68439;SHT31;55421;51.600;5.718;2023-03-30T06:01:15;12.50;80.29
68439;SHT31;55421;51.600;5.718;2023-03-30T06:03:42;12.48;80.46
68439;SHT31;55421;51.600;5.718;2023-03-30T06:06:08;12.47;80.59
68439;SHT31;55421;51.600;5.718;2023-03-30T06:08:35;12.46;80.66
68439;SHT31;55421;51.600;5.718;2023-03-30T06:11:02;12.46;80.83
68439;SHT31;55421;51.600;5.718;2023-03-30T06:13:29;12.46;80.98
68439;SHT31;55421;51.600;5.718;2023-03-30T06:15:55;12.47;81.14
68439;SHT31;55421;51.600;5.718;2023-03-30T06:18:22;12.46;81.23
68439;SHT31;55421;51.600;5.718;2023-03-30T06:20:49;12.46;81.34
68439;SHT31;55421;51.600;5.718;2023-03-30T06:23:17;12.46;81.34
68439;SHT31;55421;51.600;5.718;2023-03-30T06:25:44;12.44;81.49
68439;SHT31;55421;51.600;5.718;2023-03-30T06:28:18;12.43;81.72
68439;SHT31;55421;51.600;5.718;2023-03-30T06:30:45;12.42;81.99
68439;SHT31;55421;51.600;5.718;2023-03-30T06:33:14;12.39;82.04
68439;SHT31;55421;51.600;5.718;2023-03-30T06:35:45;12.39;82.09
68439;SHT31;55421;51.600;5.718;2023-03-30T06:38:14;12.41;82.05
68439;SHT31;55421;51.600;5.718;2023-03-30T06:40:42;12.42;81.96
68439;SHT31;55421;51.600;5.718;2023-03-30T06:43:12;12.44;81.82
68439;SHT31;55421;51.600;5.718;2023-03-30T06:45:48;12.48;81.58
68439;SHT31;55421;51.600;5.718;2023-03-30T06:48:20;12.52;81.33
68439;SHT31;55421;51.600;5.718;2023-03-30T06:50:49;12.56;81.17
68439;SHT31;55421;51.600;5.718;2023-03-30T06:53:17;12.60;81.05
68439;SHT31;55421;51.600;5.718;2023-03-30T06:55:44;12.64;80.77
68439;SHT31;55421;51.600;5.718;2023-03-30T06:58:20;12.68;80.55
68439;SHT31;55421;51.600;5.718;2023-03-30T07:00:47;12.71;80.46
68439;SHT31;55421;51.600;5.718;2023-03-30T07:03:15;12.73;80.40
68439;SHT31;55421;51.600;5.718;2023-03-30T07:05:49;12.74;80.39
68439;SHT31;55421;51.600;5.718;2023-03-30T07:08:17;12.77;80.44
68439;SHT31;55421;51.600;5.718;2023-03-30T07:10:45;12.81;80.48
68439;SHT31;55421;51.600;5.718;2023-03-30T07:13:13;12.82;80.41
68439;SHT31;55421;51.600;5.718;2023-03-30T07:15:41;12.82;80.35
68439;SHT31;55421;51.600;5.718;2023-03-30T07:18:08;12.85;80.30
68439;SHT31;55421;51.600;5.718;2023-03-30T07:20:34;12.93;80.28
68439;SHT31;55421;51.600;5.718;2023-03-30T07:23:01;13.03;80.11
68439;SHT31;55421;51.600;5.718;2023-03-30T07:25:29;13.10;79.74
68439;SHT31;55421;51.600;5.718;2023-03-30T07:27:56;13.18;79.60
68439;SHT31;55421;51.600;5.718;2023-03-30T07:30:22;13.25;79.51
68439;SHT31;55421;51.600;5.718;2023-03-30T07:32:49;13.31;79.23
68439;SHT31;55421;51.600;5.718;2023-03-30T07:35:15;13.37;79.18
68439;SHT31;55421;51.600;5.718;2023-03-30T07:37:42;13.43;78.99
68439;SHT31;55421;51.600;5.718;2023-03-30T07:40:09;13.49;78.91
68439;SHT31;55421;51.600;5.718;2023-03-30T07:42:36;13.56;78.58
68439;SHT31;55421;51.600;5.718;2023-03-30T07:45:03;13.67;78.16
68439;SHT31;55421;51.600;5.718;2023-03-30T07:47:30;13.78;77.93
68439;SHT31;55421;51.600;5.718;2023-03-30T07:49:57;13.85;77.43
68439;SHT31;55421;51.600;5.718;2023-03-30T07:52:23;13.90;77.26
68439;SHT31;55421;51.600;5.718;2023-03-30T07:54:51;13.97;77.04
68439;SHT31;55421;51.600;5.718;2023-03-30T07:57:20;14.02;76.81
68439;SHT31;55421;51.600;5.718;2023-03-30T07:59:47;14.06;76.40
68439;SHT31;55421;51.600;5.718;2023-03-30T08:02:13;14.09;76.12
68439;SHT31;55421;51.600;5.718;2023-03-30T08:04:42;14.10;75.99
68439;SHT31;55421;51.600;5.718;2023-03-30T08:07:10;14.11;76.09
68439;SHT31;55421;51.600;5.718;2023-03-30T08:09:37;14.10;75.88
68439;SHT31;55421;51.600;5.718;2023-03-30T08:12:04;14.10;75.51
68439;SHT31;55421;51.600;5.718;2023-03-30T08:14:32;14.10;75.41
68439;SHT31;55421;51.600;5.718;2023-03-30T08:16:58;14.11;75.39
68439;SHT31;55421;51.600;5.718;2023-03-30T08:19:24;14.16;75.69
68439;SHT31;55421;51.600;5.718;2023-03-30T08:22:08;14.18;75.60
68439;SHT31;55421;51.600;5.718;2023-03-30T08:25:04;14.19;75.23
68439;SHT31;55421;51.600;5.718;2023-03-30T08:27:31;14.22;75.35
68439;SHT31;55421;51.600;5.718;2023-03-30T08:29:58;14.25;75.19
68439;SHT31;55421;51.600;5.718;2023-03-30T08:32:24;14.27;75.17
68439;SHT31;55421;51.600;5.718;2023-03-30T08:34:51;14.28;74.92
68439;SHT31;55421;51.600;5.718;2023-03-30T08:37:20;14.31;74.60
68439;SHT31;55421;51.600;5.718;2023-03-30T08:39:46;14.34;74.30
68439;SHT31;55421;51.600;5.718;2023-03-30T08:42:38;14.36;74.18
68439;SHT31;55421;51.600;5.718;2023-03-30T08:45:15;14.36;73.97
68439;SHT31;55421;51.600;5.718;2023-03-30T08:47:44;14.37;73.90
68439;SHT31;55421;51.600;5.718;2023-03-30T08:50:17;14.39;73.85
68439;SHT31;55421;51.600;5.718;2023-03-30T08:52:59;14.40;73.05
68439;SHT31;55421;51.600;5.718;2023-03-30T08:58:39;14.49;72.85
68439;SHT31;55421;51.600;5.718;2023-03-30T09:01:37;14.63;72.27
68439;SHT31;55421;51.600;5.718;2023-03-30T09:04:08;14.74;72.15
68439;SHT31;55421;51.600;5.718;2023-03-30T09:07:12;14.82;71.60
68439;SHT31;55421;51.600;5.718;2023-03-30T09:09:48;14.86;71.06
68439;SHT31;55421;51.600;5.718;2023-03-30T09:12:22;14.94;71.24
68439;SHT31;55421;51.600;5.718;2023-03-30T09:15:22;15.01;71.05
68439;SHT31;55421;51.600;5.718;2023-03-30T09:18:05;15.09;70.87
68439;SHT31;55421;51.600;5.718;2023-03-30T09:20:39;15.19;69.90
68439;SHT31;55421;51.600;5.718;2023-03-30T09:23:10;15.29;69.82
68439;SHT31;55421;51.600;5.718;2023-03-30T09:36:56;15.14;67.91
68439;SHT31;55421;51.600;5.718;2023-03-30T09:39:46;15.02;67.97
68439;SHT31;55421;51.600;5.718;2023-03-30T09:42:20;14.98;68.09
68439;SHT31;55421;51.600;5.718;2023-03-30T09:47:53;14.94;68.00
68439;SHT31;55421;51.600;5.718;2023-03-30T09:50:22;14.97;68.61
68439;SHT31;55421;51.600;5.718;2023-03-30T09:52:55;15.04;69.00
68439;SHT31;55421;51.600;5.718;2023-03-30T09:55:27;15.09;68.69
68439;SHT31;55421;51.600;5.718;2023-03-30T09:58:16;15.13;68.76
68439;SHT31;55421;51.600;5.718;2023-03-30T10:03:42;15.43;67.39
68439;SHT31;55421;51.600;5.718;2023-03-30T10:11:28;15.72;65.72
68439;SHT31;55421;51.600;5.718;2023-03-30T10:14:05;15.80;65.65
68439;SHT31;55421;51.600;5.718;2023-03-30T10:16:51;15.77;65.22
68439;SHT31;55421;51.600;5.718;2023-03-30T10:19:18;15.74;65.48
68439;SHT31;55421;51.600;5.718;2023-03-30T10:21:47;15.72;65.62
68439;SHT31;55421;51.600;5.718;2023-03-30T10:24:22;15.72;65.84
68439;SHT31;55421;51.600;5.718;2023-03-30T10:26:57;15.73;66.33
68439;SHT31;55421;51.600;5.718;2023-03-30T10:29:34;15.67;65.89
68439;SHT31;55421;51.600;5.718;2023-03-30T10:32:09;15.58;65.96
68439;SHT31;55421;51.600;5.718;2023-03-30T10:34:44;15.58;65.53
68439;SHT31;55421;51.600;5.718;2023-03-30T10:37:22;15.60;65.59
68439;SHT31;55421;51.600;5.718;2023-03-30T10:40:14;15.60;65.62
68439;SHT31;55421;51.600;5.718;2023-03-30T10:42:49;15.62;65.79
68439;SHT31;55421;51.600;5.718;2023-03-30T10:45:27;15.70;65.73
68439;SHT31;55421;51.600;5.718;2023-03-30T10:48:06;15.89;65.34
68439;SHT31;55421;51.600;5.718;2023-03-30T10:51:01;16.12;65.26
68439;SHT31;55421;51.600;5.718;2023-03-30T10:54:03;16.33;64.36
68439;SHT31;55421;51.600;5.718;2023-03-30T10:57:00;16.50;64.24
68439;SHT31;55421;51.600;5.718;2023-03-30T10:59:44;16.54;62.93
68439;SHT31;55421;51.600;5.718;2023-03-30T11:05:13;16.56;62.89
68439;SHT31;55421;51.600;5.718;2023-03-30T11:10:39;16.44;63.06
68439;SHT31;55421;51.600;5.718;2023-03-30T11:13:14;16.40;62.39
68439;SHT31;55421;51.600;5.718;2023-03-30T11:16:06;16.33;62.50
68439;SHT31;55421;51.600;5.718;2023-03-30T11:18:36;16.24;63.05
68439;SHT31;55421;51.600;5.718;2023-03-30T11:22:06;16.21;63.65
68439;SHT31;55421;51.600;5.718;2023-03-30T11:24:17;16.25;63.60
68439;SHT31;55421;51.600;5.718;2023-03-30T11:26:54;16.32;63.45
68439;SHT31;55421;51.600;5.718;2023-03-30T11:29:47;16.47;62.65
68439;SHT31;55421;51.600;5.718;2023-03-30T11:32:29;16.56;62.57
68439;SHT31;55421;51.600;5.718;2023-03-30T11:38:20;16.86;61.85
68439;SHT31;55421;51.600;5.718;2023-03-30T11:41:14;16.89;62.03
68439;SHT31;55421;51.600;5.718;2023-03-30T11:43:45;16.94;62.41
68439;SHT31;55421;51.600;5.718;2023-03-30T11:46:16;16.92;61.12
68439;SHT31;55421;51.600;5.718;2023-03-30T11:57:18;17.51;61.06
68439;SHT31;55421;51.600;5.718;2023-03-30T12:03:07;17.69;60.47
68439;SHT31;55421;51.600;5.718;2023-03-30T12:12:04;17.75;59.17
68439;SHT31;55421;51.600;5.718;2023-03-30T12:14:48;17.70;59.00
68439;SHT31;55421;51.600;5.718;2023-03-30T12:17:29;17.73;59.62
68439;SHT31;55421;51.600;5.718;2023-03-30T12:22:56;17.68;58.38
68439;SHT31;55421;51.600;5.718;2023-03-30T12:25:45;17.58;59.06
68439;SHT31;55421;51.600;5.718;2023-03-30T12:28:42;17.44;59.01
68439;SHT31;55421;51.600;5.718;2023-03-30T12:31:46;17.29;59.76
68439;SHT31;55421;51.600;5.718;2023-03-30T12:34:33;17.10;59.57
68439;SHT31;55421;51.600;5.718;2023-03-30T12:39:45;16.72;61.20
68439;SHT31;55421;51.600;5.718;2023-03-30T12:42:30;16.51;63.48
68439;SHT31;55421;51.600;5.718;2023-03-30T12:59:54;16.34;64.03
68439;SHT31;55421;51.600;5.718;2023-03-30T13:02:44;16.41;64.43
68439;SHT31;55421;51.600;5.718;2023-03-30T13:05:25;16.47;64.03
68439;SHT31;55421;51.600;5.718;2023-03-30T13:08:02;16.52;64.02
68439;SHT31;55421;51.600;5.718;2023-03-30T13:10:37;16.54;63.75
68439;SHT31;55421;51.600;5.718;2023-03-30T13:13:22;16.65;64.05
68439;SHT31;55421;51.600;5.718;2023-03-30T13:16:45;16.77;63.91
68439;SHT31;55421;51.600;5.718;2023-03-30T13:27:28;17.21;61.59
68439;SHT31;55421;51.600;5.718;2023-03-30T13:32:42;17.11;60.90
68439;SHT31;55421;51.600;5.718;2023-03-30T13:41:06;17.15;61.29
68439;SHT31;55421;51.600;5.718;2023-03-30T13:47:04;17.23;60.58
68439;SHT31;55421;51.600;5.718;2023-03-30T13:52:35;17.51;59.24
68439;SHT31;55421;51.600;5.718;2023-03-30T13:55:13;17.45;58.00
68439;SHT31;55421;51.600;5.718;2023-03-30T13:57:50;17.42;58.06
68439;SHT31;55421;51.600;5.718;2023-03-30T14:00:28;17.40;58.48
68439;SHT31;55421;51.600;5.718;2023-03-30T14:03:24;17.35;58.20
68439;SHT31;55421;51.600;5.718;2023-03-30T14:08:39;17.17;58.84
68439;SHT31;55421;51.600;5.718;2023-03-30T14:11:11;17.01;59.12
68439;SHT31;55421;51.600;5.718;2023-03-30T14:14:15;16.82;59.89
68439;SHT31;55421;51.600;5.718;2023-03-30T14:16:53;16.68;60.55
68439;SHT31;55421;51.600;5.718;2023-03-30T14:19:24;16.46;63.71
68439;SHT31;55421;51.600;5.718;2023-03-30T14:21:54;16.19;66.10
68439;SHT31;55421;51.600;5.718;2023-03-30T14:24:27;16.02;67.45
68439;SHT31;55421;51.600;5.718;2023-03-30T14:27:15;15.97;68.66
68439;SHT31;55421;51.600;5.718;2023-03-30T14:29:42;15.98;69.53
68439;SHT31;55421;51.600;5.718;2023-03-30T14:32:11;15.99;69.84
68439;SHT31;55421;51.600;5.718;2023-03-30T14:34:45;16.02;69.54
68439;SHT31;55421;51.600;5.718;2023-03-30T14:37:13;16.05;69.19
68439;SHT31;55421;51.600;5.718;2023-03-30T14:39:41;16.06;68.91
68439;SHT31;55421;51.600;5.718;2023-03-30T14:44:44;16.14;68.50
68439;SHT31;55421;51.600;5.718;2023-03-30T14:47:15;16.20;68.16
68439;SHT31;55421;51.600;5.718;2023-03-30T14:49:47;16.26;67.52
68439;SHT31;55421;51.600;5.718;2023-03-30T14:52:19;16.31;67.28
68439;SHT31;55421;51.600;5.718;2023-03-30T14:54:52;16.39;67.21
68439;SHT31;55421;51.600;5.718;2023-03-30T14:57:21;16.41;65.94
68439;SHT31;55421;51.600;5.718;2023-03-30T14:59:50;16.40;66.05
68439;SHT31;55421;51.600;5.718;2023-03-30T15:02:29;16.36;65.95
68439;SHT31;55421;51.600;5.718;2023-03-30T15:04:58;16.33;66.10
68439;SHT31;55421;51.600;5.718;2023-03-30T15:07:28;16.27;66.21
68439;SHT31;55421;51.600;5.718;2023-03-30T15:09:58;16.21;66.49
68439;SHT31;55421;51.600;5.718;2023-03-30T15:12:26;16.18;66.68
68439;SHT31;55421;51.600;5.718;2023-03-30T15:15:01;16.15;67.03
68439;SHT31;55421;51.600;5.718;2023-03-30T15:17:32;16.11;67.31
68439;SHT31;55421;51.600;5.718;2023-03-30T15:20:02;16.08;67.33
68439;SHT31;55421;51.600;5.718;2023-03-30T15:22:35;16.05;67.83
68439;SHT31;55421;51.600;5.718;2023-03-30T15:25:08;16.01;68.25
68439;SHT31;55421;51.600;5.718;2023-03-30T15:27:55;15.97;68.01
68439;SHT31;55421;51.600;5.718;2023-03-30T15:30:32;15.99;68.32
68439;SHT31;55421;51.600;5.718;2023-03-30T15:33:05;16.12;68.75
68439;SHT31;55421;51.600;5.718;2023-03-30T15:35:45;16.23;68.29
68439;SHT31;55421;51.600;5.718;2023-03-30T15:38:17;16.37;68.10
68439;SHT31;55421;51.600;5.718;2023-03-30T15:40:53;16.44;67.54
68439;SHT31;55421;51.600;5.718;2023-03-30T15:43:23;16.45;67.09
68439;SHT31;55421;51.600;5.718;2023-03-30T15:46:07;16.43;66.98
68439;SHT31;55421;51.600;5.718;2023-03-30T15:48:47;16.39;66.34
68439;SHT31;55421;51.600;5.718;2023-03-30T15:53:50;16.47;65.58
68439;SHT31;55421;51.600;5.718;2023-03-30T15:56:50;16.55;65.12
68439;SHT31;55421;51.600;5.718;2023-03-30T16:04:59;16.47;65.37
68439;SHT31;55421;51.600;5.718;2023-03-30T16:07:26;16.45;65.59
68439;SHT31;55421;51.600;5.718;2023-03-30T16:09:54;16.36;65.37
68439;SHT31;55421;51.600;5.718;2023-03-30T16:12:22;16.33;64.79
68439;SHT31;55421;51.600;5.718;2023-03-30T16:14:52;16.24;64.88
68439;SHT31;55421;51.600;5.718;2023-03-30T16:17:21;16.19;64.96
68439;SHT31;55421;51.600;5.718;2023-03-30T16:19:47;16.18;64.69
68439;SHT31;55421;51.600;5.718;2023-03-30T16:22:14;16.23;64.64
68439;SHT31;55421;51.600;5.718;2023-03-30T16:24:41;16.17;64.81
68439;SHT31;55421;51.600;5.718;2023-03-30T16:27:11;16.12;65.05
68439;SHT31;55421;51.600;5.718;2023-03-30T16:29:38;16.09;65.25
68439;SHT31;55421;51.600;5.718;2023-03-30T16:32:05;16.06;65.03
68439;SHT31;55421;51.600;5.718;2023-03-30T16:34:31;16.02;65.18
68439;SHT31;55421;51.600;5.718;2023-03-30T16:36:58;15.99;65.12
68439;SHT31;55421;51.600;5.718;2023-03-30T16:39:25;15.96;65.04
68439;SHT31;55421;51.600;5.718;2023-03-30T16:41:54;15.94;65.38
68439;SHT31;55421;51.600;5.718;2023-03-30T16:44:22;16.01;65.33
68439;SHT31;55421;51.600;5.718;2023-03-30T16:46:49;16.04;65.22
68439;SHT31;55421;51.600;5.718;2023-03-30T16:49:18;16.03;65.41
68439;SHT31;55421;51.600;5.718;2023-03-30T16:51:50;16.03;65.41
68439;SHT31;55421;51.600;5.718;2023-03-30T16:54:17;15.98;65.40
68439;SHT31;55421;51.600;5.718;2023-03-30T16:56:45;15.93;65.46
68439;SHT31;55421;51.600;5.718;2023-03-30T16:59:22;15.89;65.43
68439;SHT31;55421;51.600;5.718;2023-03-30T17:01:51;15.85;65.04
68439;SHT31;55421;51.600;5.718;2023-03-30T17:04:18;15.98;64.67
68439;SHT31;55421;51.600;5.718;2023-03-30T17:06:45;15.96;64.50
68439;SHT31;55421;51.600;5.718;2023-03-30T17:09:13;15.91;64.76
68439;SHT31;55421;51.600;5.718;2023-03-30T17:11:43;15.93;64.72
68439;SHT31;55421;51.600;5.718;2023-03-30T17:14:11;16.02;64.34
68439;SHT31;55421;51.600;5.718;2023-03-30T17:16:38;16.05;64.14
68439;SHT31;55421;51.600;5.718;2023-03-30T17:19:08;15.94;64.55
68439;SHT31;55421;51.600;5.718;2023-03-30T17:21:37;15.83;64.81
68439;SHT31;55421;51.600;5.718;2023-03-30T17:24:05;15.74;65.32
68439;SHT31;55421;51.600;5.718;2023-03-30T17:26:32;15.69;65.48
68439;SHT31;55421;51.600;5.718;2023-03-30T17:28:58;15.63;65.70
68439;SHT31;55421;51.600;5.718;2023-03-30T17:31:25;15.56;66.01
68439;SHT31;55421;51.600;5.718;2023-03-30T17:33:52;15.51;66.42
68439;SHT31;55421;51.600;5.718;2023-03-30T17:36:19;15.45;66.77
68439;SHT31;55421;51.600;5.718;2023-03-30T17:38:51;15.41;67.18
68439;SHT31;55421;51.600;5.718;2023-03-30T17:41:18;15.37;67.58
68439;SHT31;55421;51.600;5.718;2023-03-30T17:43:46;15.33;67.90
68439;SHT31;55421;51.600;5.718;2023-03-30T17:46:14;15.31;68.19
68439;SHT31;55421;51.600;5.718;2023-03-30T17:48:44;15.30;68.54
68439;SHT31;55421;51.600;5.718;2023-03-30T17:51:10;15.27;68.78
68439;SHT31;55421;51.600;5.718;2023-03-30T17:53:37;15.24;69.02
68439;SHT31;55421;51.600;5.718;2023-03-30T17:56:03;15.21;69.27
68439;SHT31;55421;51.600;5.718;2023-03-30T17:58:31;15.19;69.53
68439;SHT31;55421;51.600;5.718;2023-03-30T18:01:02;15.16;69.74
68439;SHT31;55421;51.600;5.718;2023-03-30T18:03:30;15.11;69.95
68439;SHT31;55421;51.600;5.718;2023-03-30T18:05:58;15.06;70.16
68439;SHT31;55421;51.600;5.718;2023-03-30T18:08:26;15.00;70.43
68439;SHT31;55421;51.600;5.718;2023-03-30T18:10:54;14.94;70.69
68439;SHT31;55421;51.600;5.718;2023-03-30T18:13:24;14.90;70.92
68439;SHT31;55421;51.600;5.718;2023-03-30T18:15:54;14.88;71.17
68439;SHT31;55421;51.600;5.718;2023-03-30T18:18:24;14.85;71.40
68439;SHT31;55421;51.600;5.718;2023-03-30T18:20:55;14.82;71.67
68439;SHT31;55421;51.600;5.718;2023-03-30T18:23:27;14.81;71.84
68439;SHT31;55421;51.600;5.718;2023-03-30T18:25:56;14.80;72.02